KSJT/SJT METAR and TAF weather

Enter ICAO airport designator
Station Type Date Time Source
KSJT METAR 2019/06/19 06:51 UTC NOAA

KSJT 190651Z AUTO 00000KT 10SM CLR 21/15 A2990 RMK AO2 SLP101 T02110150


Station Type Date Time Source
KSJT Decoded METAR 2019/06/19 06:51 UTC NOAA

MATHIS FIELD, TX, United States (KSJT) 31-21N 100-30W 581M
Jun 19, 2019 - 02:51 AM EDT / 2019.06.19 0651 UTC
Wind: Calm:0
Visibility: 10 mile(s):0
Sky conditions: clear
Temperature: 70.0 F (21.1 C)
Dew Point: 59.0 F (15.0 C)
Relative Humidity: 68%
Pressure (altimeter): 29.9 in. Hg (1012 hPa)
ob: KSJT 190651Z AUTO 00000KT 10SM CLR 21/15 A2990 RMK AO2 SLP101 T02110150
cycle: 7

Station Type Date Time Source
KSJT TAF 2019/06/19 06:22 UTC NOAA

TAF KSJT 190520Z 1906/2006 20013KT P6SM BKN250
FM191400 20013G21KT P6SM FEW250

Example: see airport list